Airfield :
LOGIN :

Register | Disclaimer

   EN    FR    IT 

 










Legend :    VFR   Marginal VFR   IFR   Intensive IFR   Very Intensive IFR
Visi :
Ceiling :
>= 8 km
>= 3000ft
5 to 8 km
1000 to 3000 ft
1500m to 5 km
500 to 1000 ft
800 to 1500m
200 to 500 ft
< 800m
< 200 ft
Symbols :   Thunderstorms  Fog  Heavy snow  Heavy precipitations  Wind > 20 kt
SIGMETs :     Misc.  Thunderstorms  Icing  Turbulence  Mountain Waves  Volcanic Ashes







- Airport Elevation : 183 ft
- IATA code : HAJ


EDDV - Hanover/Langenhagen Int.

CURRENT METAR :
  • 151550Z 05002KT 9999 -RA BKN020 02/01 Q0998 NOSIG

EXPIRED METARs :
  • 151520Z 14002KT 9999 SCT022 BKN035 03/01 Q0997 NOSIG
  • 151450Z VRB01KT 9999 BKN024 03/01 Q0997 NOSIG
  • 151420Z 28004KT 9999 BKN028 03/01 Q0996 NOSIG
  • 151350Z AUTO 28004KT //// R27R/P2000N R27L/P2000N // ///////// 04/01 Q0996 TEMPO BKN012
  • 151320Z 27005KT 9999 BKN025 04/00 Q0996 TEMPO BKN012
  • 151250Z 25005KT 210V270 9999 BKN022 04/00 Q0996 TEMPO BKN012

TAF TAF EDDV
Valid from the 15 at 12:00 until the 16 at 12:00 UTC


151100Z 1512/1612 23004KT 9999 SCT015 BKN020
TEMPO 1515/1521 BKN012
BECMG 1521/1524 BKN012
TEMPO 1521/1610 BKN008
PROB40
TEMPO 1602/1606 2500 SHSNRA BKN008CB
BECMG 1608/1611 28010KT
TEMPO 1610/1612 4500 SHRA BKN012CB
No reported NOTAMs for that airfield.



MET'MAP, your aeronautical weather chart ! - Copyright ORBIFLY December 2007 - Disclaimer

ORBIFLY MET'MAP TEAM :

Programming & Development : Alexandra Zaïnal
Concept & Development : Baudouin d'Aumeries
Co-Development & Prog : Marc-Olivier Méhu
Technical & hardware support : Manuel Goepfert

Contact : metmap@orbifly.com




SOURCES & CREDITS :

   NOAA